Time;durP1;ratioP1;P1;durP2;ratioP2;P2;SDS_P1;SDS_P2;PMS_P1;PMS_P2;Temp;Humidity;BMP_temperature;BMP_pressure;BME280_temperature;BME280_humidity;BME280_pressure;Samples;Min_cycle;Max_cycle;Signal;HPM_P1;HPM_P2
2022/03/27 00:01:44;;;;;;;21.10;6.58;;;;;;;3.23;52.48;100539.22;1742410;82;21550;-40
2022/03/27 00:04:10;;;;;;;12.88;5.87;;;;;;;3.25;52.75;100546.56;1742333;81;21495;-40
2022/03/27 00:06:36;;;;;;;11.88;5.25;;;;;;;3.23;52.50;100547.45;1742343;82;21464;-40
2022/03/27 00:09:03;;;;;;;18.45;5.60;;;;;;;3.22;52.38;100549.20;1742567;82;21409;-40
2022/03/27 00:11:29;;;;;;;13.90;5.50;;;;;;;3.18;52.67;100550.06;1742644;82;20977;-40
2022/03/27 00:13:58;;;;;;;18.42;5.37;;;;;;;3.19;52.95;100545.75;1742269;82;21441;-40
2022/03/27 00:16:24;;;;;;;10.65;4.22;;;;;;;3.18;52.78;100551.81;1741789;82;20955;-40
2022/03/27 00:18:51;;;;;;;11.57;5.17;;;;;;;3.20;52.33;100552.66;1742412;82;20962;-40
2022/03/27 00:21:17;;;;;;;13.13;5.28;;;;;;;3.13;53.16;100556.16;1742339;82;21277;-40
2022/03/27 00:23:43;;;;;;;10.10;4.87;;;;;;;3.14;52.92;100561.36;1742262;82;21307;-40
2022/03/27 00:26:10;;;;;;;15.60;4.65;;;;;;;3.16;53.14;100571.30;1742294;82;20994;-40
2022/03/27 00:28:36;;;;;;;14.35;4.58;;;;;;;3.16;52.79;100564.81;1742414;82;21002;-40
2022/03/27 00:31:05;;;;;;;12.23;4.85;;;;;;;3.10;52.90;100562.70;1742341;82;21467;-40
2022/03/27 00:33:32;;;;;;;16.73;4.80;;;;;;;3.07;53.04;100572.23;1742359;81;21036;-40
2022/03/27 00:36:00;;;;;;;13.38;4.70;;;;;;;3.08;53.15;100571.34;1742389;82;21001;-40
2022/03/27 00:38:27;;;;;;;19.48;4.60;;;;;;;3.05;53.37;100574.39;1742392;81;20930;-40
2022/03/27 00:40:53;;;;;;;14.40;5.25;;;;;;;3.06;53.14;100574.84;1742605;82;20962;-41
2022/03/27 00:43:20;;;;;;;11.10;4.05;;;;;;;3.00;53.74;100573.54;1742528;82;20942;-40
2022/03/27 00:45:47;;;;;;;9.98;4.42;;;;;;;2.99;53.43;100575.28;1742397;82;21503;-41
2022/03/27 00:48:18;;;;;;;14.87;5.20;;;;;;;2.95;53.73;100570.98;1752760;81;20974;-41
2022/03/27 00:50:46;;;;;;;12.70;4.70;;;;;;;2.95;53.56;100574.88;1760836;80;20966;-41
2022/03/27 00:53:12;;;;;;;;;;;;;;;2.88;54.27;100572.72;1763523;80;20961;-41
2022/03/27 00:55:38;;;;;;;14.75;4.40;;;;;;;2.83;54.41;100574.91;1760812;81;20099;-40
2022/03/27 00:58:05;;;;;;;12.43;3.72;;;;;;;2.84;54.29;100578.80;1760878;81;20953;-40
2022/03/27 01:00:46;;;;;;;17.37;5.30;;;;;;;2.88;53.61;100574.47;1760864;81;20969;-40
2022/03/27 01:03:23;;;;;;;12.25;4.90;;;;;;;2.76;54.38;100579.69;1760266;81;20962;-41
2022/03/27 01:05:50;;;;;;;14.73;4.87;;;;;;;2.67;54.85;100576.27;1760920;81;21446;-40
2022/03/27 01:09:35;;;;;;;12.53;5.08;;;;;;;2.68;55.14;100572.78;1760957;81;20939;-40
2022/03/27 01:10:45;;;;;;;15.43;5.72;;;;;;;2.71;54.98;100574.94;1757551;81;20910;-41
2022/03/27 01:13:19;;;;;;;13.22;5.58;;;;;;;2.68;54.81;100579.27;1761034;81;21004;-40
2022/03/27 01:15:54;;;;;;;13.40;5.78;;;;;;;2.73;54.58;100582.28;1760861;81;21538;-40
2022/03/27 01:18:22;;;;;;;13.93;5.17;;;;;;;2.68;55.12;100584.47;1760915;81;20993;-41
2022/03/27 01:20:48;;;;;;;18.07;5.50;;;;;;;2.67;54.86;100582.75;1761089;81;20982;-41
2022/03/27 01:23:15;;;;;;;19.80;5.77;;;;;;;2.66;55.30;100581.02;1761126;81;20938;-40
2022/03/27 01:25:44;;;;;;;15.85;5.17;;;;;;;2.71;55.01;100586.63;1761023;81;20978;-41
2022/03/27 01:28:14;;;;;;;19.87;5.35;;;;;;;2.72;55.04;100583.17;1760882;80;20930;-40
2022/03/27 01:30:40;;;;;;;17.27;5.60;;;;;;;2.69;55.83;100581.42;1760288;80;20938;-41
2022/03/27 01:33:09;;;;;;;14.70;5.60;;;;;;;2.67;55.37;100578.86;1761117;81;21001;-41
2022/03/27 01:35:36;;;;;;;15.25;5.00;;;;;;;2.65;55.21;100582.31;1760745;80;21009;-41
2022/03/27 01:38:02;;;;;;;11.03;4.60;;;;;;;2.60;55.51;100578.44;1761024;81;21005;-41
2022/03/27 01:40:29;;;;;;;16.17;5.58;;;;;;;2.50;55.86;100581.47;1760916;81;21474;-41
2022/03/27 01:42:55;;;;;;;23.00;5.20;;;;;;;2.47;56.17;100589.69;1715189;81;20997;-41
2022/03/27 01:45:23;;;;;;;20.73;4.77;;;;;;;2.47;55.63;100586.69;1761209;81;21545;-41
2022/03/27 01:47:49;;;;;;;14.40;5.83;;;;;;;2.45;55.87;100581.91;1751453;81;20991;-41
2022/03/27 01:50:15;;;;;;;15.05;5.08;;;;;;;2.44;56.00;100584.53;1726974;82;20989;-41
2022/03/27 01:52:41;;;;;;;12.35;5.30;;;;;;;2.44;56.29;100595.77;1727290;82;20983;-41
2022/03/27 01:55:11;;;;;;;15.85;5.72;;;;;;;2.46;56.24;100598.37;1726985;82;21444;-40
2022/03/27 01:57:37;;;;;;;15.00;5.75;;;;;;;2.47;56.24;100588.39;1727051;82;21578;-41
2022/03/27 02:00:05;;;;;;;16.12;6.72;;;;;;;2.45;56.28;100587.53;1727028;82;20982;-41
2022/03/27 02:02:31;;;;;;;22.77;7.35;;;;;;;2.41;56.51;100592.31;1726953;82;20990;-40
2022/03/27 02:04:57;;;;;;;18.05;7.00;;;;;;;2.33;56.53;100590.14;1727007;82;21484;-41
2022/03/27 02:07:23;;;;;;;23.87;7.65;;;;;;;2.32;56.14;100602.70;1727099;82;20970;-41
2022/03/27 02:09:49;;;;;;;18.95;6.87;;;;;;;2.21;56.70;100600.97;1726950;82;20954;-41
2022/03/27 02:12:16;;;;;;;21.10;7.10;;;;;;;2.19;56.93;100591.02;1727577;82;20987;-40
2022/03/27 02:14:41;;;;;;;21.23;8.35;;;;;;;2.15;57.33;100594.49;1727109;82;21018;-41
2022/03/27 02:17:08;;;;;;;20.10;8.00;;;;;;;2.12;57.59;100598.38;1727441;82;20959;-40
2022/03/27 02:19:36;;;;;;;22.02;7.78;;;;;;;2.11;57.42;100604.00;1727103;82;20971;-40
2022/03/27 02:22:04;;;;;;;23.47;8.13;;;;;;;2.07;57.33;100606.58;1726168;82;21022;-40
2022/03/27 02:24:30;;;;;;;17.67;6.95;;;;;;;2.02;57.28;100608.30;1727036;83;20951;-40
2022/03/27 02:26:56;;;;;;;24.18;7.87;;;;;;;1.94;57.82;100605.70;1727348;82;21464;-39
2022/03/27 02:29:21;;;;;;;19.37;7.70;;;;;;;1.89;57.80;100607.42;1727239;82;20987;-40
2022/03/27 02:31:47;;;;;;;18.27;7.62;;;;;;;1.84;58.21;100609.17;1726938;82;20986;-40
2022/03/27 02:34:14;;;;;;;21.23;8.43;;;;;;;1.82;58.05;100606.58;1726915;83;20987;-40
2022/03/27 02:36:41;;;;;;;28.75;9.40;;;;;;;1.80;58.46;100612.60;1727148;83;21483;-40
2022/03/27 02:39:07;;;;;;;19.92;8.55;;;;;;;1.77;58.18;100617.37;1727473;82;21593;-40
2022/03/27 02:43:27;;;;;;;20.37;8.55;;;;;;;1.77;58.70;100619.10;1801341;79;22687;-41
2022/03/27 02:45:54;;;;;;;25.12;10.35;;;;;;;1.73;58.27;100629.90;1761859;80;21102;-42
2022/03/27 02:48:20;;;;;;;25.35;9.38;;;;;;;1.72;58.64;100632.91;1761971;81;21500;-41
2022/03/27 02:50:47;;;;;;;21.80;9.58;;;;;;;1.79;58.49;100635.09;1761953;81;21030;-43
2022/03/27 02:53:13;;;;;;;27.17;9.15;;;;;;;1.81;58.52;100637.69;1761919;81;20972;-39
2022/03/27 02:55:39;;;;;;;21.65;8.80;;;;;;;1.83;58.48;100644.59;1761607;81;21023;-41
2022/03/27 02:58:06;;;;;;;25.15;9.00;;;;;;;1.79;58.74;100645.47;1761918;80;21459;-41
2022/03/27 03:00:32;;;;;;;24.45;9.80;;;;;;;1.76;58.69;100651.08;1762083;81;20987;-41
2022/03/27 03:02:58;;;;;;;20.62;9.63;;;;;;;1.72;59.11;100651.06;1761820;80;20959;-41
2022/03/27 03:05:24;;;;;;;22.95;10.72;;;;;;;1.69;58.95;100644.59;1761817;80;21014;-41
2022/03/27 03:07:50;;;;;;;19.02;8.55;;;;;;;1.69;58.95;100644.59;1761860;81;20987;-41
2022/03/27 03:10:17;;;;;;;29.20;9.55;;;;;;;1.69;58.87;100640.70;1761815;81;20970;-41
2022/03/27 03:12:44;;;;;;;17.87;8.73;;;;;;;1.66;59.25;100650.20;1761988;80;21050;-40
2022/03/27 03:15:10;;;;;;;24.05;11.15;;;;;;;1.67;58.74;100654.09;1761889;80;21035;-40
2022/03/27 03:17:38;;;;;;;25.90;9.48;;;;;;;1.62;59.53;100653.62;1761847;81;21030;-39
2022/03/27 03:20:05;;;;;;;;;;;;;;;1.66;58.52;100652.78;1764491;80;20979;-40
2022/03/27 03:22:31;;;;;;;29.50;9.30;;;;;;;1.53;59.42;100651.45;1761915;81;20157;-40
2022/03/27 03:24:57;;;;;;;28.73;9.40;;;;;;;1.52;59.51;100656.18;1761842;81;21551;-40
2022/03/27 03:27:22;;;;;;;21.65;7.97;;;;;;;1.59;58.71;100656.22;1761907;81;20986;-40
2022/03/27 03:29:48;;;;;;;22.55;8.23;;;;;;;1.51;60.03;100653.58;1761804;80;21018;-40
2022/03/27 03:32:14;;;;;;;21.10;7.67;;;;;;;1.57;59.30;100663.98;1761842;80;21015;-41
2022/03/27 03:34:40;;;;;;;18.25;7.12;;;;;;;1.50;59.73;100661.80;1761936;81;20987;-40
2022/03/27 03:37:06;;;;;;;21.37;7.87;;;;;;;1.52;59.76;100660.51;1761826;81;21007;-40
2022/03/27 03:39:31;;;;;;;18.30;7.05;;;;;;;1.56;59.47;100660.09;1761824;81;21010;-40
2022/03/27 03:41:57;;;;;;;22.27;7.55;;;;;;;1.57;59.98;100664.43;1761795;80;21020;-40
2022/03/27 03:44:26;;;;;;;17.45;7.10;;;;;;;1.60;60.13;100663.13;1762177;81;20963;-40
2022/03/27 03:46:53;;;;;;;13.58;6.00;;;;;;;1.62;60.12;100673.06;1762200;81;20960;-40
2022/03/27 03:49:20;;;;;;;17.55;6.95;;;;;;;1.64;60.09;100673.97;1762277;81;21014;-40
2022/03/27 03:51:46;;;;;;;;;;;;;;;1.64;60.28;100673.97;1764779;81;20978;-40
2022/03/27 03:54:13;;;;;;;17.60;6.50;;;;;;;1.62;60.64;100679.14;1761705;81;20108;-40
2022/03/27 03:56:39;;;;;;;22.10;7.80;;;;;;;1.61;60.01;100674.80;1761795;80;20975;-40
2022/03/27 03:59:05;;;;;;;18.17;6.72;;;;;;;1.61;59.89;100670.05;1761517;81;20963;-41
2022/03/27 04:01:30;;;;;;;15.98;5.30;;;;;;;1.65;59.88;100683.45;1761686;81;21034;-39
2022/03/27 04:03:56;;;;;;;12.33;5.17;;;;;;;1.65;59.68;100689.94;1761534;81;20959;-40
2022/03/27 04:06:22;;;;;;;19.25;5.78;;;;;;;1.69;58.97;100688.67;1761553;81;21027;-40
2022/03/27 04:08:49;;;;;;;14.03;5.17;;;;;;;1.61;59.38;100682.58;1761605;81;21454;-39
2022/03/27 04:11:16;;;;;;;15.80;5.20;;;;;;;1.58;59.68;100687.74;1761912;81;21023;-39
2022/03/27 04:13:46;;;;;;;12.25;4.75;;;;;;;1.61;59.61;100690.80;1761653;81;20947;-39
2022/03/27 04:16:13;;;;;;;17.95;5.62;;;;;;;1.60;58.89;100692.94;1761531;80;21003;-40
2022/03/27 04:18:39;;;;;;;14.77;5.50;;;;;;;1.58;59.53;100697.26;1761759;81;20984;-40
2022/03/27 04:21:05;;;;;;;15.43;5.70;;;;;;;1.61;58.99;100696.84;1761525;80;21467;-40
2022/03/27 04:23:31;;;;;;;13.78;5.62;;;;;;;1.51;59.43;100702.43;1761521;81;20987;-40
2022/03/27 04:25:57;;;;;;;15.53;5.45;;;;;;;1.54;59.35;100697.23;1761525;81;20975;-40
2022/03/27 04:28:23;;;;;;;13.95;4.53;;;;;;;1.52;59.79;100701.55;1761547;81;21011;-40
2022/03/27 04:30:49;;;;;;;14.60;4.65;;;;;;;1.52;59.32;100701.55;1761520;81;20987;-40
2022/03/27 04:33:16;;;;;;;18.20;4.67;;;;;;;1.47;59.77;100704.55;1761597;81;21456;-40
2022/03/27 04:35:42;;;;;;;19.77;5.40;;;;;;;1.47;60.16;100699.80;1761809;81;20956;-40
2022/03/27 04:38:08;;;;;;;13.28;5.53;;;;;;;1.48;59.89;100708.89;1744400;81;20987;-40
2022/03/27 04:40:35;;;;;;;15.35;6.85;;;;;;;1.47;59.62;100704.98;1761471;81;20944;-40
2022/03/27 04:43:00;;;;;;;16.23;6.30;;;;;;;1.41;60.14;100707.56;1761723;81;21071;-40
2022/03/27 04:45:26;;;;;;;18.48;6.85;;;;;;;1.45;60.30;100705.41;1761574;81;21456;-39
2022/03/27 04:47:52;;;;;;;16.35;6.92;;;;;;;1.49;60.46;100707.16;1761558;80;20971;-40
2022/03/27 04:50:18;;;;;;;18.67;6.60;;;;;;;1.50;60.04;100708.45;1761662;81;21116;-40
2022/03/27 04:52:44;;;;;;;17.77;6.33;;;;;;;1.51;59.72;100713.20;1761510;81;20971;-41
2022/03/27 04:55:09;;;;;;;19.95;6.37;;;;;;;1.47;60.21;100718.80;1761475;81;20995;-40
2022/03/27 04:57:38;;;;;;;17.65;6.53;;;;;;;1.47;60.01;100720.10;1761586;80;21517;-40
2022/03/27 05:00:10;;;;;;;14.93;5.70;;;;;;;1.47;60.65;100721.84;1761558;81;21487;-40
2022/03/27 05:02:34;;;;;;;16.07;5.72;;;;;;;1.52;60.40;100723.59;1761160;81;21027;-40
2022/03/27 05:05:00;;;;;;;17.10;5.42;;;;;;;1.58;60.06;100724.48;1761491;81;21461;-40
2022/03/27 05:07:26;;;;;;;19.95;5.95;;;;;;;1.54;60.13;100724.45;1761505;81;20991;-39
2022/03/27 05:09:51;;;;;;;16.40;6.45;;;;;;;1.54;60.19;100721.86;1761542;81;20980;-39
2022/03/27 05:12:17;;;;;;;20.23;5.55;;;;;;;1.59;59.85;100721.90;1761569;81;21523;-39
2022/03/27 05:14:43;;;;;;;15.55;5.60;;;;;;;1.62;59.85;100730.11;1761571;81;20983;-39
2022/03/27 05:17:09;;;;;;;18.85;5.12;;;;;;;1.59;59.56;100730.12;1761465;81;20976;-39
2022/03/27 05:19:35;;;;;;;20.37;6.87;;;;;;;1.56;60.15;100729.66;1761472;81;20984;-39
2022/03/27 05:22:01;;;;;;;22.77;6.92;;;;;;;1.60;60.95;100731.42;1761426;81;20975;-40
2022/03/27 05:24:28;;;;;;;21.12;7.25;;;;;;;1.66;60.59;100726.25;1761506;81;20987;-40
2022/03/27 05:26:54;;;;;;;17.30;6.40;;;;;;;1.74;60.64;100730.17;1761889;81;21022;-40
2022/03/27 05:29:21;;;;;;;13.20;5.83;;;;;;;1.78;60.51;100729.31;1761539;81;20986;-40
2022/03/27 05:31:47;;;;;;;19.60;7.28;;;;;;;1.79;60.24;100727.16;1761466;81;20990;-40
2022/03/27 05:34:13;;;;;;;16.35;6.37;;;;;;;1.81;60.41;100725.88;1761507;81;20959;-39
2022/03/27 05:36:38;;;;;;;14.75;6.37;;;;;;;1.83;60.34;100731.49;1761450;81;21001;-40
2022/03/27 05:39:04;;;;;;;20.48;6.40;;;;;;;1.85;59.95;100728.91;1761556;80;20986;-39
2022/03/27 05:41:30;;;;;;;13.05;5.78;;;;;;;1.87;59.71;100729.38;1761562;81;21015;-39
2022/03/27 05:43:56;;;;;;;19.48;6.17;;;;;;;1.89;59.44;100732.83;1749587;81;21563;-39
2022/03/27 05:46:22;;;;;;;24.90;6.35;;;;;;;1.88;59.59;100728.94;1748127;82;21027;-39
2022/03/27 05:48:48;;;;;;;14.00;6.50;;;;;;;1.89;59.78;100727.64;1748143;81;21027;-40
2022/03/27 05:51:13;;;;;;;19.40;6.17;;;;;;;1.88;59.72;100734.12;1748097;81;20968;-40
2022/03/27 05:53:39;;;;;;;16.05;6.00;;;;;;;1.87;60.45;100734.56;1748089;81;20972;-40
2022/03/27 05:56:05;;;;;;;18.35;6.55;;;;;;;1.94;60.41;100739.75;1748080;81;20988;-40
2022/03/27 05:58:31;;;;;;;17.82;6.87;;;;;;;2.01;59.76;100736.32;1748053;82;20960;-40
2022/03/27 06:00:57;;;;;;;19.27;7.30;;;;;;;2.07;60.22;100746.70;1748118;81;20984;-40
2022/03/27 06:03:23;;;;;;;22.55;9.25;;;;;;;2.15;59.87;100748.91;1748048;81;20984;-39
2022/03/27 06:05:49;;;;;;;29.25;9.80;;;;;;;2.23;59.73;100746.32;1748177;81;21019;-41
2022/03/27 06:08:15;;;;;;;22.30;8.08;;;;;;;2.28;59.78;100748.06;1748183;81;21484;-40
2022/03/27 06:10:41;;;;;;;17.73;7.00;;;;;;;2.37;59.00;100755.00;1748087;81;21086;-41
2022/03/27 06:13:10;;;;;;;22.75;6.72;;;;;;;2.36;59.28;100757.16;1748137;81;20957;-41
2022/03/27 06:15:35;;;;;;;30.25;6.72;;;;;;;2.42;59.32;100764.08;1748050;81;21011;-41
2022/03/27 06:18:01;;;;;;;17.70;6.33;;;;;;;2.51;59.24;100761.53;1748108;81;21015;-41
2022/03/27 06:20:30;;;;;;;22.10;8.38;;;;;;;2.58;58.98;100764.98;1748083;81;21023;-42
2022/03/27 06:22:57;;;;;;;21.48;8.83;;;;;;;2.65;58.78;100763.68;1748036;82;20995;-41
2022/03/27 06:25:26;;;;;;;13.47;6.33;;;;;;;2.73;58.85;100771.50;1748352;81;20953;-40
2022/03/27 06:27:52;;;;;;;9.65;4.37;;;;;;;2.80;58.34;100770.64;1748181;82;20980;-41
2022/03/27 06:30:21;;;;;;;12.33;5.03;;;;;;;2.81;57.68;100781.89;1748106;82;21503;-41
2022/03/27 06:32:48;;;;;;;13.00;4.45;;;;;;;2.83;57.34;100781.45;1748110;81;21433;-40
2022/03/27 06:35:16;;;;;;;9.10;4.45;;;;;;;2.94;57.06;100791.41;1748224;82;20976;-40
2022/03/27 06:37:43;;;;;;;13.88;5.35;;;;;;;2.92;56.62;100806.13;1748088;81;21495;-40
2022/03/27 06:40:12;;;;;;;15.80;4.22;;;;;;;3.00;56.55;100810.92;1748249;81;21019;-40
2022/03/27 06:42:40;;;;;;;8.95;4.22;;;;;;;3.04;56.31;100809.19;1747965;81;21543;-41
2022/03/27 06:45:07;;;;;;;10.40;4.40;;;;;;;3.07;56.06;100817.84;1748248;81;21315;-40
2022/03/27 06:47:33;;;;;;;10.60;3.85;;;;;;;3.14;55.73;100819.99;1748209;81;20964;-40
2022/03/27 06:50:02;;;;;;;12.43;4.35;;;;;;;3.20;55.82;100823.91;1748106;82;21156;-40
2022/03/27 06:52:29;;;;;;;12.25;3.85;;;;;;;3.24;55.64;100820.44;1748064;81;20937;-41
2022/03/27 06:54:55;;;;;;;9.18;3.67;;;;;;;3.30;55.38;100826.06;1748221;81;21019;-40
2022/03/27 06:57:21;;;;;;;9.15;3.58;;;;;;;3.37;54.29;100834.28;1748250;81;21492;-41
2022/03/27 07:05:16;;;;;;;9.08;4.25;;;;;;;3.59;53.51;100836.41;1748087;81;20968;-40
2022/03/27 07:07:42;;;;;;;10.23;3.67;;;;;;;3.59;52.87;100835.12;1748071;81;21023;-40
2022/03/27 07:10:10;;;;;;;8.15;3.70;;;;;;;3.65;51.63;100830.33;1748066;81;20991;-41
2022/03/27 07:12:36;;;;;;;6.10;2.83;;;;;;;3.78;51.96;100838.56;1748045;81;20987;-41
2022/03/27 07:15:02;;;;;;;9.58;3.62;;;;;;;3.87;50.87;100831.58;1748161;81;21512;-40
2022/03/27 07:17:29;;;;;;;10.80;2.70;;;;;;;3.91;50.23;100835.89;1748060;81;21449;-41
2022/03/27 07:19:54;;;;;;;6.92;3.02;;;;;;;3.89;47.67;100833.73;1748058;82;20948;-40
2022/03/27 07:22:20;;;;;;;7.90;2.98;;;;;;;3.89;46.23;100829.84;1748054;81;21457;-40
2022/03/27 07:24:46;;;;;;;7.17;2.90;;;;;;;3.95;47.21;100829.84;1748075;81;20988;-39
2022/03/27 07:27:12;;;;;;;5.40;2.70;;;;;;;3.94;46.09;100826.34;1748032;81;21024;-40
2022/03/27 07:29:39;;;;;;;9.45;3.35;;;;;;;3.94;45.50;100817.67;1748154;82;21015;-41
2022/03/27 07:32:06;;;;;;;4.67;2.80;;;;;;;4.05;47.07;100810.69;1748592;81;20987;-40
2022/03/27 07:34:34;;;;;;;7.10;3.17;;;;;;;4.13;46.13;100808.04;1748300;81;21496;-40
2022/03/27 07:37:00;;;;;;;;;;;;;;;4.15;42.99;100814.99;1750848;81;20987;-41
2022/03/27 07:39:26;;;;;;;8.68;3.05;;;;;;;4.14;41.17;100810.64;1748160;81;20097;-41
2022/03/27 07:41:52;;;;;;;9.33;3.10;;;;;;;4.20;44.57;100810.63;1748157;81;20996;-41
2022/03/27 07:44:18;;;;;;;7.65;3.25;;;;;;;4.29;43.94;100812.75;1759198;80;21540;-41
2022/03/27 07:46:44;;;;;;;8.38;3.90;;;;;;;4.43;44.38;100814.84;1761792;81;20971;-41
2022/03/27 07:49:11;;;;;;;4.58;2.95;;;;;;;4.63;44.00;100822.54;1761550;81;20987;-39
2022/03/27 07:51:37;;;;;;;4.57;1.90;;;;;;;4.94;42.44;100831.00;1761790;81;21011;-40
2022/03/27 07:54:03;;;;;;;5.22;1.62;;;;;;;5.21;37.25;100825.16;1761554;81;21639;-41
2022/03/27 07:56:29;;;;;;;8.60;4.58;;;;;;;5.59;40.12;100825.23;1761756;81;20987;-42
2022/03/27 07:58:56;;;;;;;7.40;3.65;;;;;;;6.05;38.45;100828.66;1761579;81;20976;-41
2022/03/27 08:01:23;;;;;;;5.37;3.03;;;;;;;6.42;39.93;100830.82;1761768;81;20986;-41
2022/03/27 08:03:50;;;;;;;4.90;2.80;;;;;;;6.48;35.63;100820.27;1761549;81;21042;-42
2022/03/27 08:06:16;;;;;;;5.60;1.87;;;;;;;6.75;37.98;100827.72;1761703;81;21014;-42
2022/03/27 08:08:42;;;;;;;4.37;1.60;;;;;;;6.73;35.58;100826.02;1761492;81;21031;-42
2022/03/27 08:11:09;;;;;;;2.08;1.30;;;;;;;6.78;32.27;100826.38;1761604;81;21583;-42
2022/03/27 08:13:35;;;;;;;5.03;1.80;;;;;;;7.09;36.82;100826.34;1761661;81;21026;-43
2022/03/27 08:16:01;;;;;;;4.70;2.37;;;;;;;7.42;35.86;100829.69;1761537;81;20971;-42
2022/03/27 08:18:27;;;;;;;7.00;1.95;;;;;;;7.50;33.59;100827.81;1761523;81;21546;-42
2022/03/27 08:20:53;;;;;;;6.72;1.70;;;;;;;7.77;32.14;100834.75;1761570;81;21016;-44
2022/03/27 08:23:19;;;;;;;20.92;2.33;;;;;;;7.91;33.46;100831.39;1761496;80;20983;-42
2022/03/27 08:28:29;;;;;;;4.95;2.67;;;;;;;7.84;33.68;100831.09;1761539;81;21014;-40
2022/03/27 08:30:55;;;;;;;4.50;1.72;;;;;;;7.79;34.30;100823.34;1761573;80;21524;-42
2022/03/27 08:33:21;;;;;;;6.50;1.75;;;;;;;7.67;34.42;100821.80;1761525;80;20983;-41
2022/03/27 08:35:46;;;;;;;6.80;2.65;;;;;;;7.65;32.37;100814.88;1761495;81;20956;-43
2022/03/27 08:38:15;;;;;;;5.28;2.70;;;;;;;7.74;34.14;100817.32;1761513;81;21077;-41
2022/03/27 08:40:47;;;;;;;2.83;1.35;;;;;;;7.73;32.41;100819.55;1761508;81;21505;-42
2022/03/27 08:43:16;;;;;;;12.93;1.90;;;;;;;7.83;32.74;100817.14;1757645;80;21055;-42
2022/03/27 08:45:44;;;;;;;5.58;2.02;;;;;;;8.00;33.02;100812.87;1748340;81;21473;-43
2022/03/27 08:48:11;;;;;;;4.25;1.92;;;;;;;8.12;32.32;100808.30;1748206;82;20988;-43
2022/03/27 08:51:02;;;;;;;5.85;2.20;;;;;;;8.26;32.68;100811.03;1748243;81;20987;-44
2022/03/27 08:53:38;;;;;;;2.72;1.05;;;;;;;8.27;31.09;100806.64;1737818;82;20992;-44
2022/03/27 08:56:08;;;;;;;2.43;0.93;;;;;;;8.33;30.64;100805.22;1748304;81;21501;-44
2022/03/27 08:58:40;;;;;;;3.45;1.10;;;;;;;8.44;29.75;100800.63;1748138;82;21174;-46
2022/03/27 09:01:07;;;;;;;2.50;1.10;;;;;;;8.71;31.01;100797.40;1748029;81;21463;-42
2022/03/27 09:03:34;;;;;;;2.98;1.12;;;;;;;8.82;30.72;100800.20;1748091;81;20953;-43
2022/03/27 09:06:01;;;;;;;2.27;1.03;;;;;;;9.03;31.64;100790.06;1748440;81;21391;-43
2022/03/27 09:08:29;;;;;;;7.67;5.15;;;;;;;8.93;29.90;100784.62;1748288;82;20980;-44
2022/03/27 09:10:56;;;;;;;2.55;1.20;;;;;;;9.08;29.74;100796.06;1748276;81;20984;-44
2022/03/27 09:13:23;;;;;;;3.07;1.07;;;;;;;9.28;27.84;100794.25;1748329;81;21390;-42
2022/03/27 09:16:05;;;;;;;2.90;1.15;;;;;;;9.39;30.07;100787.41;1748274;81;21019;-43
2022/03/27 09:18:53;;;;;;;2.77;1.15;;;;;;;9.72;29.26;100791.34;1745597;81;20976;-45
2022/03/27 09:21:23;;;;;;;3.08;1.20;;;;;;;9.97;30.21;100791.05;1748086;82;20956;-43
2022/03/27 09:23:59;;;;;;;5.90;1.50;;;;;;;9.88;27.06;100786.52;1747564;81;20980;-43
2022/03/27 09:26:26;;;;;;;3.12;1.40;;;;;;;9.84;26.25;100793.63;1747777;81;21054;-43
2022/03/27 09:28:57;;;;;;;4.53;1.62;;;;;;;10.26;27.88;100794.59;1748322;81;20987;-43
2022/03/27 09:31:28;;;;;;;3.67;1.82;;;;;;;10.59;29.56;100796.25;1748052;81;21450;-44
2022/03/27 09:34:02;;;;;;;4.60;1.62;;;;;;;10.88;30.32;100783.04;1748146;81;21469;-45
2022/03/27 09:36:39;;;;;;;4.42;1.55;;;;;;;10.90;27.99;100794.84;1748065;81;21053;-44
2022/03/27 09:39:19;;;;;;;3.98;1.32;;;;;;;10.61;25.13;100781.30;1748016;81;20948;-46
2022/03/27 09:42:01;;;;;;;3.45;1.62;;;;;;;10.50;27.78;100777.23;1748105;81;20986;-46
2022/03/27 09:44:36;;;;;;;5.05;1.80;;;;;;;10.41;27.20;100772.26;1748029;81;21035;-44
2022/03/27 09:47:08;;;;;;;4.75;1.80;;;;;;;10.19;28.39;100770.70;1748108;81;20987;-43
2022/03/27 09:49:42;;;;;;;3.00;1.50;;;;;;;9.88;28.65;100770.29;1748115;81;21486;-43
2022/03/27 09:52:20;;;;;;;5.37;1.87;;;;;;;9.21;26.15;100764.66;1748054;81;21000;-44
2022/03/27 09:54:59;;;;;;;5.12;1.85;;;;;;;9.35;29.04;100760.38;1748091;81;20991;-43
2022/03/27 09:57:34;;;;;;;4.75;1.60;;;;;;;9.00;28.54;100761.27;1748061;81;20983;-43
2022/03/27 10:00:20;;;;;;;3.35;1.57;;;;;;;9.04;28.65;100764.25;1748094;82;20976;-40
2022/03/27 10:02:49;;;;;;;6.78;1.98;;;;;;;9.09;29.27;100759.72;1748082;81;20997;-42
2022/03/27 10:05:19;;;;;;;6.22;1.77;;;;;;;9.06;29.36;100761.56;1737310;82;21011;-42
2022/03/27 10:07:52;;;;;;;4.90;1.85;;;;;;;8.98;28.45;100757.83;1748058;81;20973;-43
2022/03/27 10:10:21;;;;;;;9.78;1.40;;;;;;;8.94;29.03;100749.63;1748135;81;20988;-42
2022/03/27 10:12:49;;;;;;;10.53;2.10;;;;;;;8.78;29.25;100744.75;1748206;81;20980;-41
2022/03/27 10:15:27;;;;;;;2.40;1.32;;;;;;;8.77;28.99;100740.88;1748143;81;20991;-41
2022/03/27 10:18:05;;;;;;;7.10;1.85;;;;;;;8.79;29.20;100739.93;1747567;81;20944;-42
2022/03/27 10:20:36;;;;;;;6.08;1.47;;;;;;;8.68;28.08;100740.65;1748196;81;21012;-42
2022/03/27 10:23:10;;;;;;;3.52;1.87;;;;;;;9.13;30.09;100727.70;1748154;82;21435;-43
2022/03/27 10:25:52;;;;;;;6.60;1.70;;;;;;;9.70;29.88;100736.67;1748172;82;20988;-42
2022/03/27 10:28:20;;;;;;;13.13;2.45;;;;;;;10.51;30.15;100726.79;1747993;81;20988;-43
2022/03/27 10:30:52;;;;;;;11.55;1.82;;;;;;;11.49;29.85;100722.59;1748201;81;21056;-44
2022/03/27 10:33:19;;;;;;;5.00;1.62;;;;;;;12.10;28.22;100720.80;1748152;81;21478;-43
2022/03/27 10:36:13;;;;;;;4.78;1.90;;;;;;;12.06;28.67;100721.37;1748290;81;20980;-46
2022/03/27 10:38:54;;;;;;;7.35;2.08;;;;;;;11.72;27.96;100717.33;1748167;81;20980;-42
2022/03/27 10:41:42;;;;;;;4.37;1.57;;;;;;;11.17;26.97;100713.19;1748113;81;20988;-42
2022/03/27 10:44:40;;;;;;;3.62;2.00;;;;;;;11.07;26.45;100719.24;1748028;80;21019;-42
2022/03/27 10:47:19;;;;;;;7.17;1.50;;;;;;;11.32;27.79;100721.88;1737599;82;21599;-44
2022/03/27 10:50:08;;;;;;;4.95;1.50;;;;;;;12.33;26.32;100707.15;1748175;81;21619;-43
2022/03/27 10:52:45;;;;;;;8.98;1.80;;;;;;;13.46;26.75;100707.27;1748160;81;20972;-45
2022/03/27 10:55:14;;;;;;;11.38;3.42;;;;;;;14.66;25.50;100701.66;1748194;81;20996;-45
2022/03/27 10:57:45;;;;;;;7.72;2.90;;;;;;;15.07;24.89;100696.91;1748142;81;20972;-46
2022/03/27 11:00:14;;;;;;;60.05;3.33;;;;;;;15.96;25.19;100690.01;1748182;81;21514;-45
2022/03/27 11:02:53;;;;;;;9.30;1.75;;;;;;;16.50;23.95;100685.66;1748135;81;20980;-44
2022/03/27 11:05:41;;;;;;;3.60;1.85;;;;;;;16.65;19.99;100688.73;1748270;81;20964;-46
2022/03/27 11:08:22;;;;;;;6.50;1.70;;;;;;;17.64;22.66;100685.03;1748141;81;20972;-43
2022/03/27 11:10:54;;;;;;;3.52;1.40;;;;;;;17.55;19.34;100680.25;1748282;81;21035;-49
2022/03/27 11:13:32;;;;;;;3.87;1.47;;;;;;;18.20;19.87;100673.05;1748365;81;21012;-44
2022/03/27 11:16:10;;;;;;;14.93;2.67;;;;;;;18.25;20.43;100670.59;1748316;81;20976;-46
2022/03/27 11:18:46;;;;;;;3.85;1.45;;;;;;;18.59;19.93;100658.52;1748396;81;21579;-44
2022/03/27 11:21:32;;;;;;;2.72;1.85;;;;;;;19.38;20.27;100660.72;1748458;81;21085;-43
2022/03/27 11:24:07;;;;;;;4.28;1.50;;;;;;;19.61;17.98;100654.22;1748431;81;20988;-46
2022/03/27 11:26:34;;;;;;;5.20;2.35;;;;;;;19.97;18.42;100651.23;1748348;81;21492;-45
2022/03/27 11:29:20;;;;;;;3.40;1.70;;;;;;;20.90;16.43;100645.58;1748381;81;21007;-46
2022/03/27 11:32:07;;;;;;;6.55;1.90;;;;;;;21.39;15.55;100648.92;1748543;82;21004;-46
2022/03/27 11:34:34;;;;;;;8.23;2.10;;;;;;;20.67;15.88;100637.98;1748219;81;21636;-49
2022/03/27 11:37:25;;;;;;;5.03;2.60;;;;;;;21.34;15.41;100629.70;1748367;81;20988;-46
2022/03/27 11:39:52;;;;;;;2.95;2.00;;;;;;;21.85;15.68;100627.85;1748302;81;21000;-47
2022/03/27 11:42:25;;;;;;;4.15;2.00;;;;;;;22.52;16.09;100625.95;1737775;82;20973;-43
2022/03/27 11:45:21;;;;;;;5.92;2.55;;;;;;;23.33;15.54;100626.16;1748153;80;21024;-44
2022/03/27 11:47:52;;;;;;;4.05;1.92;;;;;;;23.51;15.76;100615.64;1748406;81;20999;-44